Time;durP1;ratioP1;P1;durP2;ratioP2;P2;SDS_P1;SDS_P2;PMS_P1;PMS_P2;Temp;Humidity;BMP_temperature;BMP_pressure;BME280_temperature;BME280_humidity;BME280_pressure;Samples;Min_cycle;Max_cycle;Signal;HPM_P1;HPM_P2
2022/06/24 00:02:00;;;;;;;5.70;2.63;;;17.80;99.90;;;;;;5051767;28;20029;-76
2022/06/24 00:04:28;;;;;;;3.65;2.53;;;17.70;99.90;;;;;;5052069;28;20029;-76
2022/06/24 00:06:56;;;;;;;4.32;2.30;;;17.60;99.90;;;;;;5051544;28;20044;-76
2022/06/24 00:09:25;;;;;;;3.42;2.35;;;17.50;99.90;;;;;;5052268;28;20477;-76
2022/06/24 00:12:05;;;;;;;3.60;2.55;;;17.50;99.90;;;;;;5051589;28;20025;-76
2022/06/24 00:14:31;;;;;;;3.72;2.20;;;17.40;99.90;;;;;;5052114;28;20025;-76
2022/06/24 00:17:04;;;;;;;3.42;2.10;;;17.40;99.90;;;;;;5051811;28;20473;-76
2022/06/24 00:19:33;;;;;;;3.88;2.35;;;17.30;99.90;;;;;;5051811;28;20390;-76
2022/06/24 00:22:09;;;;;;;5.13;2.28;;;17.20;99.90;;;;;;5051905;28;20041;-76
2022/06/24 00:24:37;;;;;;;3.55;2.00;;;17.20;99.90;;;;;;5051481;28;20021;-75
2022/06/24 00:27:04;;;;;;;2.33;1.77;;;17.10;99.90;;;;;;5051964;28;20033;-76
2022/06/24 00:29:32;;;;;;;3.25;2.38;;;17.10;99.90;;;;;;5052135;28;20025;-76
2022/06/24 00:32:03;;;;;;;3.45;2.13;;;17.00;99.90;;;;;;5051289;28;20035;-75
2022/06/24 00:34:28;;;;;;;3.40;2.40;;;17.00;99.90;;;;;;5052138;28;20463;-75
2022/06/24 00:36:54;;;;;;;2.92;2.28;;;16.90;99.90;;;;;;5033448;28;20035;-76
2022/06/24 00:39:29;;;;;;;4.10;2.30;;;16.90;99.90;;;;;;5052043;28;20108;-75
2022/06/24 00:41:55;;;;;;;2.60;2.40;;;16.80;99.90;;;;;;5051184;28;20039;-75
2022/06/24 00:44:23;;;;;;;3.35;2.30;;;16.80;99.90;;;;;;5052038;28;20456;-76
2022/06/24 00:46:52;;;;;;;3.13;2.30;;;16.80;99.90;;;;;;5051283;28;20025;-75
2022/06/24 00:49:25;;;;;;;3.33;2.08;;;16.80;99.90;;;;;;5051742;28;20061;-76
2022/06/24 00:51:51;;;;;;;3.95;2.60;;;16.80;99.90;;;;;;5051379;28;20095;-75
2022/06/24 00:54:18;;;;;;;5.70;2.28;;;16.70;99.90;;;;;;5051655;28;20052;-76
2022/06/24 00:56:45;;;;;;;2.83;2.50;;;16.60;99.90;;;;;;5051006;28;20075;-75
2022/06/24 00:59:11;;;;;;;3.72;2.42;;;16.60;99.90;;;;;;5051760;28;20048;-76
2022/06/24 01:01:38;;;;;;;5.32;2.50;;;16.50;99.90;;;;;;5051049;28;20039;-75
2022/06/24 01:04:07;;;;;;;3.67;2.60;;;16.50;99.90;;;;;;5051739;28;20021;-75
2022/06/24 01:06:34;;;;;;;2.90;2.45;;;16.40;99.90;;;;;;5051523;28;20025;-76
2022/06/24 01:09:00;;;;;;;3.53;2.20;;;16.30;99.90;;;;;;5053167;28;20032;-76
2022/06/24 01:11:36;;;;;;;4.88;2.50;;;16.20;99.90;;;;;;5055238;28;20033;-76
2022/06/24 01:14:02;;;;;;;4.20;2.30;;;16.20;99.90;;;;;;5055054;28;20459;-76
2022/06/24 01:16:28;;;;;;;3.50;2.20;;;16.10;99.90;;;;;;5037720;28;20478;-76
2022/06/24 01:18:56;;;;;;;7.97;2.97;;;16.10;99.90;;;;;;5036939;28;20032;-76
2022/06/24 01:21:45;;;;;;;3.75;2.45;;;16.10;99.90;;;;;;5055289;28;20039;-76
2022/06/24 01:24:29;;;;;;;3.35;2.60;;;16.10;99.90;;;;;;5055542;28;20025;-76
2022/06/24 01:26:57;;;;;;;4.00;2.65;;;16.10;99.90;;;;;;5054765;28;20029;-75
2022/06/24 01:29:24;;;;;;;4.43;2.65;;;16.00;99.90;;;;;;5055262;28;20025;-76
2022/06/24 01:31:52;;;;;;;3.85;3.20;;;15.90;99.90;;;;;;5054450;28;20060;-75
2022/06/24 01:34:20;;;;;;;3.22;2.92;;;15.90;99.90;;;;;;5036664;28;20044;-75
2022/06/24 01:36:47;;;;;;;3.20;2.90;;;15.90;99.90;;;;;;5053990;28;20025;-75
2022/06/24 01:39:13;;;;;;;4.43;3.08;;;15.90;99.90;;;;;;5054898;28;20557;-76
2022/06/24 01:41:39;;;;;;;3.65;3.30;;;15.90;99.90;;;;;;5054463;28;20036;-75
2022/06/24 01:44:05;;;;;;;5.47;3.03;;;15.80;99.90;;;;;;5055156;28;20033;-76
2022/06/24 01:46:31;;;;;;;5.80;3.13;;;15.80;99.90;;;;;;5054781;28;20098;-76
2022/06/24 01:48:57;;;;;;;4.70;3.22;;;15.70;99.90;;;;;;5054316;28;20025;-75
2022/06/24 01:51:24;;;;;;;3.17;2.88;;;15.70;99.90;;;;;;5037036;28;20025;-75
2022/06/24 01:53:50;;;;;;;3.92;3.45;;;15.70;99.90;;;;;;5054000;28;20025;-75
2022/06/24 01:56:17;;;;;;;4.43;3.10;;;15.60;99.90;;;;;;5054794;28;20027;-75
2022/06/24 01:58:43;;;;;;;3.42;2.80;;;15.60;99.90;;;;;;5053771;28;20434;-75
2022/06/24 02:01:09;;;;;;;4.47;3.05;;;15.50;99.90;;;;;;5054503;28;20025;-75
2022/06/24 02:03:35;;;;;;;4.93;2.85;;;15.40;99.90;;;;;;5054205;28;20469;-76
2022/06/24 02:06:03;;;;;;;3.28;2.65;;;15.40;99.90;;;;;;5053881;28;20029;-75
2022/06/24 02:08:29;;;;;;;3.35;2.63;;;15.30;99.90;;;;;;5054431;28;20033;-75
2022/06/24 02:13:40;;;;;;;3.10;2.90;;;15.20;99.90;;;;;;5053964;28;20493;-75
2022/06/24 02:16:07;;;;;;;6.68;3.10;;;15.10;99.90;;;;;;5054279;28;20025;-75
2022/06/24 02:18:33;;;;;;;3.67;2.80;;;15.10;99.90;;;;;;5054116;28;20025;-75
2022/06/24 02:21:00;;;;;;;2.72;2.42;;;15.00;99.90;;;;;;5053430;28;20194;-75
2022/06/24 02:23:26;;;;;;;2.92;2.33;;;15.00;99.90;;;;;;5054350;28;20029;-75
2022/06/24 02:25:53;;;;;;;2.92;2.50;;;15.00;99.90;;;;;;5053342;28;20114;-75
2022/06/24 02:28:19;;;;;;;5.80;2.78;;;15.00;99.90;;;;;;5053929;28;20040;-76
2022/06/24 02:30:47;;;;;;;5.53;2.80;;;14.90;99.90;;;;;;5053493;28;20025;-75
2022/06/24 02:33:13;;;;;;;3.53;2.70;;;14.90;99.90;;;;;;5053811;28;20048;-75
2022/06/24 02:35:40;;;;;;;3.90;2.90;;;15.00;99.90;;;;;;5054011;28;20025;-75
2022/06/24 02:38:07;;;;;;;5.72;2.50;;;15.00;99.90;;;;;;5053753;28;20032;-75
2022/06/24 02:40:45;;;;;;;3.35;2.28;;;15.00;99.90;;;;;;5053770;28;20032;-75
2022/06/24 02:43:14;;;;;;;2.70;2.40;;;15.00;99.90;;;;;;5053537;28;20037;-75
2022/06/24 02:45:40;;;;;;;2.75;2.38;;;15.10;99.90;;;;;;5053761;28;20025;-75
2022/06/24 02:48:07;;;;;;;3.50;2.60;;;15.20;99.90;;;;;;5051914;28;20025;-75
2022/06/24 02:50:41;;;;;;;4.53;2.30;;;15.30;99.90;;;;;;5053649;28;20035;-76
2022/06/24 02:53:07;;;;;;;4.18;2.40;;;15.40;99.90;;;;;;5053378;28;20029;-75
2022/06/24 02:55:33;;;;;;;2.75;2.33;;;15.40;99.90;;;;;;5053504;28;20429;-76
2022/06/24 02:57:59;;;;;;;2.65;2.40;;;15.60;99.90;;;;;;5052890;28;20025;-75
2022/06/24 03:00:25;;;;;;;5.72;2.50;;;15.60;99.90;;;;;;5053515;28;20025;-76
2022/06/24 03:02:50;;;;;;;4.25;2.28;;;15.70;99.90;;;;;;5052865;28;20037;-75
2022/06/24 03:05:16;;;;;;;3.65;2.20;;;15.80;99.90;;;;;;5053255;28;20028;-76
2022/06/24 03:07:42;;;;;;;2.97;2.00;;;15.80;99.90;;;;;;5053113;28;20053;-75
2022/06/24 03:10:08;;;;;;;3.05;2.00;;;16.00;99.90;;;;;;5052925;28;20229;-76
2022/06/24 03:12:34;;;;;;;3.08;2.28;;;16.00;99.90;;;;;;5053214;28;20464;-75
2022/06/24 03:14:59;;;;;;;2.85;2.20;;;16.00;99.90;;;;;;5034912;28;20025;-75
2022/06/24 03:17:25;;;;;;;2.28;2.03;;;16.00;99.90;;;;;;5035474;28;20155;-76
2022/06/24 03:19:51;;;;;;;3.05;2.50;;;16.00;99.90;;;;;;5052239;28;20032;-75
2022/06/24 03:22:16;;;;;;;3.50;2.30;;;16.00;99.90;;;;;;5052974;28;20033;-75
2022/06/24 03:24:42;;;;;;;4.30;2.30;;;16.00;99.90;;;;;;5053021;28;20025;-76
2022/06/24 03:27:08;;;;;;;3.05;2.50;;;16.00;99.90;;;;;;5052526;28;20387;-75
2022/06/24 03:29:34;;;;;;;2.58;2.38;;;15.90;99.90;;;;;;5052982;28;20397;-75
2022/06/24 03:32:00;;;;;;;6.78;2.95;;;15.90;99.90;;;;;;5051556;28;20060;-76
2022/06/24 03:34:25;;;;;;;3.58;2.80;;;15.80;99.90;;;;;;5052724;28;20032;-76
2022/06/24 03:36:51;;;;;;;3.58;2.70;;;15.70;99.90;;;;;;5034618;28;20028;-75
2022/06/24 03:39:17;;;;;;;3.80;2.58;;;15.70;99.90;;;;;;5052348;28;20052;-76
2022/06/24 03:41:42;;;;;;;3.13;2.83;;;15.70;99.90;;;;;;5053008;28;20033;-76
2022/06/24 03:44:08;;;;;;;8.18;3.70;;;15.70;99.90;;;;;;5051709;28;20079;-76
2022/06/24 03:46:34;;;;;;;5.70;3.42;;;15.60;99.90;;;;;;5052667;28;20025;-75
2022/06/24 03:49:00;;;;;;;3.45;3.15;;;15.60;99.90;;;;;;5052019;28;20025;-76
2022/06/24 03:51:25;;;;;;;4.05;3.20;;;15.70;99.90;;;;;;5052528;28;20033;-75
2022/06/24 03:53:51;;;;;;;5.63;3.38;;;15.70;99.90;;;;;;5052275;28;20025;-75
2022/06/24 03:56:17;;;;;;;3.42;3.13;;;15.80;99.90;;;;;;5052227;28;20021;-75
2022/06/24 03:58:42;;;;;;;4.70;3.53;;;15.80;99.90;;;;;;5052474;28;20062;-76
2022/06/24 04:01:08;;;;;;;3.38;3.08;;;15.90;99.90;;;;;;5051787;28;20044;-76
2022/06/24 04:03:34;;;;;;;5.35;3.83;;;15.90;99.90;;;;;;5052627;28;20028;-76
2022/06/24 04:05:59;;;;;;;6.10;3.95;;;15.90;99.90;;;;;;5051704;28;20021;-75
2022/06/24 04:08:25;;;;;;;3.85;3.53;;;16.00;99.90;;;;;;5052527;28;20025;-76
2022/06/24 04:10:51;;;;;;;4.40;3.80;;;16.00;99.90;;;;;;5051735;28;20029;-76
2022/06/24 04:13:17;;;;;;;4.30;3.90;;;16.10;99.90;;;;;;5052176;28;20029;-75
2022/06/24 04:15:46;;;;;;;4.38;3.90;;;16.10;99.90;;;;;;5051995;28;20043;-76
2022/06/24 04:18:12;;;;;;;4.95;3.95;;;16.20;99.90;;;;;;5052142;28;20029;-76
2022/06/24 04:20:39;;;;;;;5.68;4.43;;;16.20;99.90;;;;;;5052172;28;20036;-76
2022/06/24 04:23:05;;;;;;;11.52;4.70;;;16.20;99.90;;;;;;5051588;28;20461;-76
2022/06/24 04:25:30;;;;;;;5.35;4.65;;;16.20;99.90;;;;;;5052231;28;20025;-76
2022/06/24 04:27:56;;;;;;;5.63;4.25;;;16.20;99.90;;;;;;5051608;28;20097;-75
2022/06/24 04:30:22;;;;;;;4.07;3.72;;;16.30;99.90;;;;;;5052141;28;20024;-76
2022/06/24 04:32:48;;;;;;;6.90;4.60;;;16.30;99.90;;;;;;5051474;28;20229;-75
2022/06/24 04:35:13;;;;;;;5.32;4.20;;;16.30;99.90;;;;;;5051581;28;20100;-76
2022/06/24 04:37:40;;;;;;;4.72;4.25;;;16.30;99.90;;;;;;5052282;28;20430;-75
2022/06/24 04:40:12;;;;;;;5.47;3.85;;;16.30;99.90;;;;;;5051226;28;20025;-75
2022/06/24 04:42:37;;;;;;;4.10;3.70;;;16.30;99.90;;;;;;5051893;28;20044;-75
2022/06/24 04:45:04;;;;;;;4.68;4.00;;;16.30;99.90;;;;;;5055151;28;20021;-75
2022/06/24 04:47:30;;;;;;;5.38;3.70;;;16.20;99.90;;;;;;5056071;28;20100;-76
2022/06/24 04:49:56;;;;;;;4.72;3.45;;;16.20;99.90;;;;;;5055294;28;20116;-76
2022/06/24 04:52:22;;;;;;;8.90;3.30;;;16.20;99.90;;;;;;5055772;28;20417;-76
2022/06/24 04:54:50;;;;;;;3.13;2.47;;;16.10;99.90;;;;;;5037891;28;20025;-76
2022/06/24 04:57:16;;;;;;;3.10;2.55;;;16.10;99.90;;;;;;5055656;28;20090;-76
2022/06/24 04:59:42;;;;;;;2.97;2.00;;;16.20;99.90;;;;;;5055859;28;20032;-76
2022/06/24 05:02:08;;;;;;;4.47;1.60;;;16.30;99.90;;;;;;5055073;28;20391;-76
2022/06/24 05:04:37;;;;;;;1.83;1.40;;;16.50;99.90;;;;;;5055655;28;20025;-76
2022/06/24 05:07:04;;;;;;;2.10;1.30;;;16.60;99.90;;;;;;5055188;28;20036;-76
2022/06/24 05:09:30;;;;;;;3.45;1.08;;;16.60;99.90;;;;;;5055130;28;20027;-75
2022/06/24 05:11:56;;;;;;;1.20;1.08;;;16.70;99.90;;;;;;5055218;28;20029;-75
2022/06/24 05:14:21;;;;;;;1.30;0.90;;;16.70;99.90;;;;;;5055542;28;20494;-76
2022/06/24 05:16:47;;;;;;;1.55;0.90;;;16.90;99.90;;;;;;5055447;28;20019;-76
2022/06/24 05:19:13;;;;;;;1.00;0.70;;;16.90;99.90;;;;;;5054701;28;20594;-76
2022/06/24 05:21:39;;;;;;;1.20;0.80;;;17.00;99.90;;;;;;5054987;28;20138;-76
2022/06/24 05:24:05;;;;;;;1.83;0.85;;;17.10;99.90;;;;;;5054737;28;20052;-75
2022/06/24 05:26:31;;;;;;;0.68;0.50;;;17.20;99.90;;;;;;5054894;28;20052;-75
2022/06/24 05:28:57;;;;;;;0.88;0.40;;;17.20;99.90;;;;;;5054478;28;20025;-76
2022/06/24 05:31:23;;;;;;;0.75;0.50;;;17.20;99.90;;;;;;5055112;28;20103;-76
2022/06/24 05:33:49;;;;;;;0.82;0.40;;;17.30;99.90;;;;;;5055283;28;20487;-77
2022/06/24 05:36:15;;;;;;;2.15;0.80;;;17.40;99.90;;;;;;5054326;28;20103;-76
2022/06/24 05:38:42;;;;;;;1.38;0.52;;;17.50;99.90;;;;;;5054721;28;20032;-76
2022/06/24 05:41:08;;;;;;;1.60;0.45;;;17.60;99.90;;;;;;5054215;28;20032;-76
2022/06/24 05:43:34;;;;;;;0.70;0.52;;;17.70;99.90;;;;;;5054742;28;20053;-76
2022/06/24 05:46:00;;;;;;;0.73;0.57;;;17.70;99.90;;;;;;5054300;28;20025;-75
2022/06/24 05:48:25;;;;;;;1.33;0.73;;;17.80;99.90;;;;;;5054773;28;20070;-76
2022/06/24 05:50:51;;;;;;;1.05;0.63;;;17.80;99.90;;;;;;5054754;28;20407;-76
2022/06/24 05:56:02;;;;;;;1.27;0.65;;;18.00;99.90;;;;;;5053827;28;20027;-76
2022/06/24 05:58:29;;;;;;;0.77;0.50;;;18.00;99.90;;;;;;5054569;28;20411;-76
2022/06/24 06:00:55;;;;;;;3.53;0.77;;;17.90;99.90;;;;;;5054114;28;20032;-75
2022/06/24 06:03:25;;;;;;;4.05;0.90;;;17.80;99.90;;;;;;5054631;28;20037;-76
2022/06/24 06:05:51;;;;;;;2.80;0.77;;;17.70;99.90;;;;;;5054573;28;20070;-76
2022/06/24 06:08:17;;;;;;;3.88;0.52;;;17.60;99.90;;;;;;5053703;28;20428;-75
2022/06/24 06:10:43;;;;;;;5.78;0.60;;;17.50;99.90;;;;;;5054163;28;20021;-76
2022/06/24 06:13:12;;;;;;;1.13;0.50;;;17.40;99.90;;;;;;5053707;28;20111;-75
2022/06/24 06:15:40;;;;;;;2.03;0.50;;;17.60;99.90;;;;;;5054306;28;20059;-76
2022/06/24 06:18:06;;;;;;;1.33;0.60;;;17.50;99.90;;;;;;5053595;28;20029;-76
2022/06/24 06:20:32;;;;;;;0.57;0.50;;;17.50;99.90;;;;;;5036257;28;20025;-75
2022/06/24 06:22:58;;;;;;;1.52;0.80;;;17.30;99.90;;;;;;5053566;28;20487;-75
2022/06/24 06:25:24;;;;;;;1.48;0.75;;;17.20;99.90;;;;;;5053989;28;20079;-75
2022/06/24 06:27:50;;;;;;;3.35;1.05;;;17.20;99.90;;;;;;5054057;28;20108;-76
2022/06/24 06:30:16;;;;;;;2.80;0.55;;;17.40;99.90;;;;;;5053382;28;20214;-76
2022/06/24 06:32:42;;;;;;;2.55;0.80;;;17.50;99.90;;;;;;5053852;28;20482;-76
2022/06/24 06:35:08;;;;;;;2.60;0.70;;;17.80;99.90;;;;;;5053079;28;20395;-76
2022/06/24 06:37:34;;;;;;;1.38;0.70;;;18.00;99.90;;;;;;5053769;28;20036;-76
2022/06/24 06:40:00;;;;;;;5.82;1.20;;;18.20;99.90;;;;;;5053530;28;20032;-75
2022/06/24 06:42:26;;;;;;;7.35;0.93;;;18.50;99.90;;;;;;5053519;28;20032;-75
2022/06/24 06:44:52;;;;;;;2.92;0.70;;;18.60;99.90;;;;;;5053338;28;20498;-76
2022/06/24 06:47:17;;;;;;;6.63;1.38;;;18.90;99.90;;;;;;5053023;28;20029;-76
2022/06/24 06:49:44;;;;;;;1.55;0.60;;;19.00;99.90;;;;;;5053621;28;20481;-76
2022/06/24 06:52:10;;;;;;;0.55;0.52;;;19.00;99.90;;;;;;5053359;28;20059;-76
2022/06/24 06:54:37;;;;;;;3.42;1.00;;;19.10;99.90;;;;;;5053524;28;20463;-76
2022/06/24 06:57:03;;;;;;;0.60;0.57;;;19.10;99.90;;;;;;5052965;28;20025;-77
2022/06/24 06:59:29;;;;;;;1.52;0.85;;;19.10;99.90;;;;;;5053009;28;20479;-76
2022/06/24 07:01:54;;;;;;;2.00;0.55;;;19.10;99.90;;;;;;5053218;28;20125;-76
2022/06/24 07:04:21;;;;;;;3.22;1.00;;;19.10;99.90;;;;;;5052807;28;20029;-76
2022/06/24 07:06:48;;;;;;;2.63;0.70;;;18.90;99.90;;;;;;5052443;28;20040;-76
2022/06/24 07:09:14;;;;;;;0.93;0.68;;;18.90;99.90;;;;;;5052544;28;20025;-76
2022/06/24 07:11:40;;;;;;;1.42;0.47;;;18.90;99.90;;;;;;5053514;28;20059;-75
2022/06/24 07:14:06;;;;;;;1.40;0.60;;;18.80;99.90;;;;;;5052708;28;20079;-75
2022/06/24 07:16:31;;;;;;;0.93;0.70;;;18.80;99.90;;;;;;5052893;28;20368;-75
2022/06/24 07:18:57;;;;;;;1.33;0.90;;;18.80;99.90;;;;;;5053321;28;20024;-76
2022/06/24 07:21:23;;;;;;;6.55;0.52;;;18.90;99.90;;;;;;5053006;28;20025;-76
2022/06/24 07:23:48;;;;;;;2.20;0.60;;;18.90;99.90;;;;;;5052857;28;20070;-75
2022/06/24 07:26:14;;;;;;;2.95;0.45;;;18.90;99.90;;;;;;5052640;28;20372;-76
2022/06/24 07:28:40;;;;;;;2.67;0.47;;;19.00;99.90;;;;;;5052827;28;20029;-77
2022/06/24 07:31:17;;;;;;;0.98;0.60;;;19.00;99.90;;;;;;5051839;28;20104;-75
2022/06/24 07:33:43;;;;;;;1.85;0.60;;;19.00;99.90;;;;;;5052455;28;20045;-76
2022/06/24 07:36:09;;;;;;;1.08;0.40;;;18.90;99.90;;;;;;5052240;28;20028;-76
2022/06/24 07:38:35;;;;;;;5.95;0.80;;;18.80;99.90;;;;;;5052476;28;20021;-77
2022/06/24 07:41:00;;;;;;;0.43;0.32;;;18.70;99.90;;;;;;5052394;28;20511;-75
2022/06/24 07:43:26;;;;;;;3.85;0.63;;;18.70;99.90;;;;;;5052458;28;20029;-76
2022/06/24 07:45:53;;;;;;;4.40;0.80;;;18.70;99.90;;;;;;5052201;28;20064;-77
2022/06/24 07:48:18;;;;;;;2.38;0.40;;;18.80;99.90;;;;;;5051914;28;20036;-77
2022/06/24 07:50:44;;;;;;;3.20;0.63;;;18.90;99.90;;;;;;5052527;28;20029;-77
2022/06/24 07:53:10;;;;;;;1.25;0.40;;;19.10;99.90;;;;;;5051544;28;20112;-77
2022/06/24 07:58:20;;;;;;;1.15;0.45;;;19.50;99.90;;;;;;5051971;28;20036;-77
2022/06/24 08:00:47;;;;;;;1.95;0.30;;;19.70;99.90;;;;;;5052473;28;20025;-77
2022/06/24 08:03:12;;;;;;;3.33;0.35;;;19.90;99.90;;;;;;5051654;28;20033;-77
2022/06/24 08:05:38;;;;;;;6.50;0.75;;;20.10;99.90;;;;;;5052489;28;20055;-77
2022/06/24 08:08:04;;;;;;;8.27;1.08;;;20.10;99.90;;;;;;5051828;28;20021;-76
2022/06/24 08:10:30;;;;;;;4.15;0.45;;;20.10;99.90;;;;;;5051941;28;20036;-77
2022/06/24 08:12:56;;;;;;;4.00;0.52;;;20.00;99.90;;;;;;5052057;28;20391;-77
2022/06/24 08:15:21;;;;;;;1.35;0.32;;;20.00;99.90;;;;;;5051544;28;20597;-77
2022/06/24 08:17:48;;;;;;;2.83;0.50;;;20.10;99.90;;;;;;5052118;28;20036;-77
2022/06/24 08:20:14;;;;;;;1.33;0.40;;;20.30;99.90;;;;;;5051533;28;20116;-77
2022/06/24 08:22:40;;;;;;;1.23;0.40;;;20.30;99.90;;;;;;5052109;28;20112;-77
2022/06/24 08:25:06;;;;;;;1.77;0.20;;;20.30;99.90;;;;;;5033697;28;20100;-77
2022/06/24 08:27:32;;;;;;;0.80;0.40;;;20.50;99.90;;;;;;5056191;28;20387;-76
2022/06/24 08:29:58;;;;;;;7.65;0.90;;;20.60;99.90;;;;;;5069242;28;20025;-76
2022/06/24 08:32:24;;;;;;;19.42;2.13;;;20.80;99.90;;;;;;5071063;28;20047;-76
2022/06/24 08:34:50;;;;;;;4.38;0.40;;;20.70;99.90;;;;;;5072473;28;20445;-77
2022/06/24 08:37:15;;;;;;;2.42;0.20;;;20.60;99.90;;;;;;5071504;28;20490;-76
2022/06/24 08:39:41;;;;;;;2.80;0.77;;;20.40;99.90;;;;;;5071945;28;20021;-76
2022/06/24 08:42:11;;;;;;;0.95;0.20;;;20.20;99.90;;;;;;5071053;28;20060;-76
2022/06/24 08:44:43;;;;;;;1.40;0.50;;;20.00;99.90;;;;;;5071491;28;20040;-78
2022/06/24 08:47:14;;;;;;;1.27;0.30;;;19.90;99.90;;;;;;5071272;28;20033;-76
2022/06/24 08:49:40;;;;;;;2.20;0.30;;;19.80;99.90;;;;;;5071686;28;20067;-76
2022/06/24 08:52:10;;;;;;;1.98;0.30;;;19.70;99.90;;;;;;5071303;28;20059;-75
2022/06/24 08:54:41;;;;;;;2.78;0.32;;;19.70;99.90;;;;;;5071783;28;20106;-77
2022/06/24 08:57:07;;;;;;;0.80;0.40;;;19.80;99.90;;;;;;5071066;28;20028;-76
2022/06/24 08:59:33;;;;;;;0.55;0.30;;;19.80;99.90;;;;;;5071758;28;20029;-76
2022/06/24 09:01:58;;;;;;;5.30;0.30;;;20.10;99.90;;;;;;5071680;28;20032;-76
2022/06/24 09:04:25;;;;;;;4.45;0.40;;;20.30;99.90;;;;;;5070760;28;20043;-76
2022/06/24 09:06:50;;;;;;;0.82;0.20;;;20.40;99.90;;;;;;5071409;28;20043;-76
2022/06/24 09:09:24;;;;;;;0.73;0.10;;;20.60;99.90;;;;;;5053161;28;20451;-75
2022/06/24 09:11:54;;;;;;;0.32;0.13;;;20.90;99.90;;;;;;5071358;28;20029;-77
2022/06/24 09:14:20;;;;;;;7.40;0.30;;;21.30;99.90;;;;;;5071068;28;20020;-76
2022/06/24 09:16:46;;;;;;;8.93;0.55;;;21.50;99.90;;;;;;5053847;28;20024;-75
2022/06/24 09:19:14;;;;;;;4.88;0.40;;;21.60;99.90;;;;;;5070702;28;20027;-76
2022/06/24 09:21:42;;;;;;;1.65;0.32;;;21.70;99.90;;;;;;5071531;28;20029;-77
2022/06/24 09:24:09;;;;;;;2.78;0.30;;;21.60;99.90;;;;;;5071029;28;20426;-75
2022/06/24 09:26:40;;;;;;;5.45;0.25;;;21.70;99.90;;;;;;5071604;28;20056;-77
2022/06/24 09:29:14;;;;;;;2.75;0.75;;;21.80;99.90;;;;;;5071954;28;20111;-76
2022/06/24 09:31:41;;;;;;;0.40;0.20;;;21.80;99.90;;;;;;5075107;28;20078;-76
2022/06/24 09:34:08;;;;;;;1.00;0.25;;;21.70;99.90;;;;;;5056818;28;20458;-75
2022/06/24 09:36:35;;;;;;;5.78;0.60;;;21.60;99.90;;;;;;5074862;28;20032;-76
2022/06/24 09:39:07;;;;;;;0.70;0.30;;;21.60;99.90;;;;;;5074970;28;20070;-76
2022/06/24 09:41:56;;;;;;;3.83;0.50;;;21.50;99.90;;;;;;5074447;28;20024;-75
2022/06/24 09:44:24;;;;;;;6.93;1.05;;;21.40;99.90;;;;;;5056176;28;20029;-76
2022/06/24 09:47:02;;;;;;;3.10;0.38;;;21.50;99.90;;;;;;5074317;28;20425;-76
2022/06/24 09:49:28;;;;;;;2.72;0.30;;;21.60;99.90;;;;;;5073995;28;20071;-75
2022/06/24 09:51:55;;;;;;;9.07;0.85;;;21.70;99.90;;;;;;5074809;28;20111;-76
2022/06/24 09:54:21;;;;;;;5.03;0.52;;;21.80;99.90;;;;;;5074118;28;20025;-76
2022/06/24 09:56:47;;;;;;;4.57;0.50;;;21.90;99.90;;;;;;5056933;28;20368;-77
2022/06/24 10:01:59;;;;;;;1.85;0.35;;;22.20;99.90;;;;;;5074560;28;20063;-76
2022/06/24 10:04:27;;;;;;;3.08;0.50;;;22.30;99.90;;;;;;5074201;28;20064;-77
2022/06/24 10:06:56;;;;;;;0.77;0.20;;;22.50;99.90;;;;;;5074418;28;20036;-77
2022/06/24 10:09:30;;;;;;;5.65;0.52;;;22.60;99.90;;;;;;5073643;28;20052;-78
2022/06/24 10:12:00;;;;;;;1.75;0.40;;;22.50;99.90;;;;;;5073875;28;20025;-78
2022/06/24 10:14:29;;;;;;;3.95;0.63;;;22.30;99.90;;;;;;5073647;28;20100;-77
2022/06/24 10:16:56;;;;;;;2.92;0.50;;;22.00;99.90;;;;;;5073344;28;20040;-78
2022/06/24 10:19:25;;;;;;;4.30;0.73;;;21.80;99.90;;;;;;5074449;28;20067;-77
2022/06/24 10:21:51;;;;;;;2.40;0.60;;;21.50;99.90;;;;;;5074684;28;20036;-78
2022/06/24 10:24:18;;;;;;;5.18;0.73;;;21.40;99.90;;;;;;5074047;28;20481;-78
2022/06/24 10:26:50;;;;;;;9.73;1.15;;;21.30;99.90;;;;;;5055938;28;20029;-78
2022/06/24 10:29:18;;;;;;;1.65;0.80;;;21.20;99.90;;;;;;5073396;28;20051;-77
2022/06/24 10:31:52;;;;;;;3.28;0.75;;;21.00;99.90;;;;;;5074188;28;20474;-77
2022/06/24 10:34:29;;;;;;;3.85;0.77;;;20.80;99.90;;;;;;5073268;28;20083;-77
2022/06/24 10:37:10;;;;;;;2.63;0.95;;;20.70;99.90;;;;;;5074230;28;20463;-78
2022/06/24 10:39:51;;;;;;;3.28;0.88;;;20.50;99.90;;;;;;5073132;28;20047;-78
2022/06/24 10:42:24;;;;;;;2.63;0.90;;;20.40;99.90;;;;;;5072746;28;20099;-77
2022/06/24 10:45:03;;;;;;;6.07;1.52;;;20.20;99.90;;;;;;5073791;28;20024;-78
2022/06/24 10:47:35;;;;;;;5.30;1.67;;;20.10;99.90;;;;;;5073068;28;20041;-78
2022/06/24 10:50:02;;;;;;;;;;;20.10;99.90;;;;;;5074238;28;20098;-77
2022/06/24 10:52:28;;;;;;;;;;;19.90;99.90;;;;;;5073245;28;19904;-77
2022/06/24 10:55:13;;;;;;;;;;;19.80;99.90;;;;;;5056038;28;19911;-77
2022/06/24 10:57:38;;;;;;;;;;;19.70;99.90;;;;;;5073506;28;19908;-79
2022/06/24 11:00:10;;;;;;;;;;;19.60;99.90;;;;;;5073809;28;20266;-78
2022/06/24 11:02:35;;;;;;;;;;;19.40;99.90;;;;;;5073394;28;19912;-78
2022/06/24 11:05:01;;;;;;;;;;;19.40;99.90;;;;;;5074083;28;20350;-77
2022/06/24 11:07:27;;;;;;;;;;;19.30;99.90;;;;;;5073071;28;20320;-77
2022/06/24 11:09:52;;;;;;;;;;;19.20;99.90;;;;;;5073540;28;19904;-77
2022/06/24 11:12:28;;;;;;;;;;;19.10;99.90;;;;;;5054921;28;19908;-76
2022/06/24 11:14:53;;;;;;;;;;;19.20;99.90;;;;;;5073591;28;20274;-77
2022/06/24 11:17:23;;;;;;;;;;;19.30;99.90;;;;;;5072717;28;19904;-76
2022/06/24 11:19:48;;;;;;;;;;;19.20;99.90;;;;;;5055897;28;19908;-77
2022/06/24 11:22:14;;;;;;;;;;;19.20;99.90;;;;;;5072516;28;19935;-76
2022/06/24 11:24:40;;;;;;;;;;;19.20;99.90;;;;;;5072819;28;19904;-78
2022/06/24 11:27:06;;;;;;;;;;;19.20;99.90;;;;;;5072776;28;19944;-77
2022/06/24 11:29:48;;;;;;;;;;;19.20;99.90;;;;;;5072714;28;19904;-78
2022/06/24 11:32:14;;;;;;;;;;;19.20;99.90;;;;;;5072568;28;19908;-76
2022/06/24 11:34:39;;;;;;;;;;;19.10;99.90;;;;;;5073415;28;19915;-78
2022/06/24 11:37:05;;;;;;;;;;;19.10;99.90;;;;;;5072743;28;20332;-77
2022/06/24 11:39:33;;;;;;;;;;;19.00;99.90;;;;;;5054522;28;19905;-76
2022/06/24 11:41:59;;;;;;;;;;;19.10;99.90;;;;;;5072823;28;19917;-79
2022/06/24 11:44:38;;;;;;;;;;;19.10;99.90;;;;;;5072948;28;19934;-78
2022/06/24 11:47:05;;;;;;;;;;;19.20;99.90;;;;;;5072993;28;19910;-78
2022/06/24 11:49:32;;;;;;;;;;;19.30;99.90;;;;;;5054379;28;19915;-78
2022/06/24 11:51:57;;;;;;;;;;;19.40;99.90;;;;;;5064319;28;19905;-78
2022/06/24 11:54:28;;;;;;;;;;;19.50;99.90;;;;;;5054178;28;19916;-77
2022/06/24 11:56:53;;;;;;;;;;;19.60;99.90;;;;;;5064605;28;19912;-77
2022/06/24 11:59:19;;;;;;;;;;;19.70;99.90;;;;;;5057350;28;19908;-77
2022/06/24 12:01:45;;;;;;;;;;;19.80;99.90;;;;;;5065932;28;20355;-76
2022/06/24 12:04:12;;;;;;;;;;;19.80;99.90;;;;;;5073347;28;19904;-77
2022/06/24 12:06:38;;;;;;;;;;;19.90;99.90;;;;;;5072476;28;19900;-77
2022/06/24 12:09:04;;;;;;;;;;;19.80;99.90;;;;;;5072651;28;19950;-77
2022/06/24 12:11:35;;;;;;;;;;;19.80;99.90;;;;;;5071825;28;20347;-77
2022/06/24 12:14:04;;;;;;;;;;;19.70;99.90;;;;;;5072374;28;19954;-77
2022/06/24 12:16:48;;;;;;;;;;;19.80;99.90;;;;;;5071754;28;19911;-77
2022/06/24 12:19:14;;;;;;;;;;;19.80;99.90;;;;;;5072811;28;19904;-78
2022/06/24 12:21:39;;;;;;;;;;;19.80;99.90;;;;;;5071737;28;19911;-77
2022/06/24 12:24:20;;;;;;;;;;;19.70;99.90;;;;;;5072284;28;19905;-77
2022/06/24 12:26:46;;;;;;;;;;;19.70;99.90;;;;;;5072348;28;19904;-77
2022/06/24 12:29:12;;;;;;;;;;;19.70;99.90;;;;;;5072306;28;20472;-78
2022/06/24 12:31:38;;;;;;;;;;;19.80;99.90;;;;;;5071941;28;19904;-77
2022/06/24 12:34:04;;;;;;;;;;;19.80;99.90;;;;;;5072219;28;19916;-77
2022/06/24 12:36:41;;;;;;;;;;;19.90;99.90;;;;;;5071752;28;19966;-78
2022/06/24 12:39:08;;;;;;;;;;;20.10;99.90;;;;;;5072491;28;20355;-77
2022/06/24 12:41:44;;;;;;;;;;;20.10;99.90;;;;;;5071728;28;19904;-78
2022/06/24 12:44:10;;;;;;;;;;;20.10;99.90;;;;;;5072068;28;19958;-78
2022/06/24 12:46:35;;;;;;;;;;;20.10;99.90;;;;;;5071747;28;19908;-78
2022/06/24 12:51:55;;;;;;;;;;;19.90;99.90;;;;;;5072362;28;19942;-78
2022/06/24 12:54:20;;;;;;;;;;;19.90;99.90;;;;;;5071380;28;20354;-77
2022/06/24 12:56:46;;;;;;;;;;;19.90;99.90;;;;;;5071982;28;19911;-78
2022/06/24 12:59:12;;;;;;;;;;;19.90;99.90;;;;;;5072053;28;20317;-78
2022/06/24 13:01:44;;;;;;;;;;;19.90;99.90;;;;;;5071407;28;19911;-77
2022/06/24 13:04:11;;;;;;;;;;;19.90;99.90;;;;;;5072754;28;19904;-78
2022/06/24 13:06:37;;;;;;;;;;;19.90;99.90;;;;;;5075292;28;19911;-78
2022/06/24 13:09:04;;;;;;;;;;;19.90;99.90;;;;;;5075662;28;20325;-78
2022/06/24 13:11:30;;;;;;;;;;;19.80;99.90;;;;;;5075313;28;19905;-78
2022/06/24 13:13:55;;;;;;;;;;;19.90;99.90;;;;;;5075659;28;19912;-78
2022/06/24 13:16:21;;;;;;;;;;;19.90;99.90;;;;;;5075515;28;19904;-78
2022/06/24 13:18:46;;;;;;;;;;;19.80;99.90;;;;;;5075409;28;19909;-78